KPTS

Atkinson Municipal Airport

Pittsburg, Kansas, USA
METAR KPTS 221735Z AUTO 00000KT 10SM SCT031 SCT037 SCT055 27/20 A3004 RMK AO2 T02730203
Observed Flight Rules
May-22 @ 17:35 UTC (8 minutes ago) Visual Flight Rules
Visibility Clouds
10 miles
  • Scattered at 3,100' AGL
  • Scattered at 3,700' AGL
  • Scattered at 5,500' AGL
Temperatures Readings
Current 27°C / 81°F
Dewpoint 20°C / 68°F
Humidity 66%
Altimeter 30.04" Hg
Pressure 1017 hPa
Elevation 290
METAR KPTS 221735Z AUTO 00000KT 10SM SCT031 SCT037 SCT055 27/20 A3004 RMK AO2 T02730203
Observed Flight Rules
May-22 @ 17:35 UTC
(8 minutes ago)
VFR
Clouds
  • Scattered at 3,100' AGL
  • Scattered at 3,700' AGL
  • Scattered at 5,500' AGL
Temperature Dewpoint
27°C / 81°F 20°C / 68°F
Humidity Altimeter Pressure
66% 30.04" Hg 1017 hPa